sensor_id;sensor_type;location;lat;lon;timestamp;P1;durP1;ratioP1;P2;durP2;ratioP2
35977;SDS011;22056;0.000;0.000;2023-08-21T00:01:18;0.40;;;0.40;;
35977;SDS011;22056;0.000;0.000;2023-08-21T00:03:44;0.52;;;0.52;;
35977;SDS011;22056;0.000;0.000;2023-08-21T00:06:11;0.40;;;0.40;;
35977;SDS011;22056;0.000;0.000;2023-08-21T00:08:37;0.50;;;0.50;;
35977;SDS011;22056;0.000;0.000;2023-08-21T00:11:03;0.50;;;0.50;;
35977;SDS011;22056;0.000;0.000;2023-08-21T00:13:29;0.35;;;0.35;;
35977;SDS011;22056;0.000;0.000;2023-08-21T00:15:55;0.40;;;0.40;;
35977;SDS011;22056;0.000;0.000;2023-08-21T00:18:21;0.40;;;0.40;;
35977;SDS011;22056;0.000;0.000;2023-08-21T00:20:47;0.40;;;0.40;;
35977;SDS011;22056;0.000;0.000;2023-08-21T00:23:14;0.40;;;0.40;;
35977;SDS011;22056;0.000;0.000;2023-08-21T00:25:40;0.40;;;0.40;;
35977;SDS011;22056;0.000;0.000;2023-08-21T00:28:07;0.50;;;0.50;;
35977;SDS011;22056;0.000;0.000;2023-08-21T00:30:34;0.30;;;0.30;;
35977;SDS011;22056;0.000;0.000;2023-08-21T00:33:00;0.47;;;0.47;;
35977;SDS011;22056;0.000;0.000;2023-08-21T00:35:26;0.45;;;0.45;;
35977;SDS011;22056;0.000;0.000;2023-08-21T00:37:52;0.50;;;0.50;;
35977;SDS011;22056;0.000;0.000;2023-08-21T00:40:18;0.30;;;0.30;;
35977;SDS011;22056;0.000;0.000;2023-08-21T00:42:44;0.38;;;0.38;;
35977;SDS011;22056;0.000;0.000;2023-08-21T00:45:10;0.40;;;0.40;;
35977;SDS011;22056;0.000;0.000;2023-08-21T00:47:36;0.40;;;0.40;;
35977;SDS011;22056;0.000;0.000;2023-08-21T00:50:03;0.40;;;0.40;;
35977;SDS011;22056;0.000;0.000;2023-08-21T00:52:31;0.30;;;0.30;;
35977;SDS011;22056;0.000;0.000;2023-08-21T00:54:57;0.43;;;0.43;;
35977;SDS011;22056;0.000;0.000;2023-08-21T00:57:23;0.40;;;0.40;;
35977;SDS011;22056;0.000;0.000;2023-08-21T00:59:50;0.30;;;0.30;;
35977;SDS011;22056;0.000;0.000;2023-08-21T01:02:16;0.40;;;0.40;;
35977;SDS011;22056;0.000;0.000;2023-08-21T01:04:44;0.40;;;0.40;;
35977;SDS011;22056;0.000;0.000;2023-08-21T01:07:10;0.40;;;0.40;;
35977;SDS011;22056;0.000;0.000;2023-08-21T01:09:49;0.40;;;0.40;;
35977;SDS011;22056;0.000;0.000;2023-08-21T01:17:23;0.30;;;0.30;;
35977;SDS011;22056;0.000;0.000;2023-08-21T01:19:50;0.40;;;0.40;;
35977;SDS011;22056;0.000;0.000;2023-08-21T01:22:18;0.30;;;0.30;;
35977;SDS011;22056;0.000;0.000;2023-08-21T01:24:44;0.30;;;0.30;;
35977;SDS011;22056;0.000;0.000;2023-08-21T01:27:10;0.32;;;0.32;;
35977;SDS011;22056;0.000;0.000;2023-08-21T01:29:38;0.38;;;0.38;;
35977;SDS011;22056;0.000;0.000;2023-08-21T01:34:34;0.45;;;0.40;;
35977;SDS011;22056;0.000;0.000;2023-08-21T01:37:00;0.30;;;0.30;;
35977;SDS011;22056;0.000;0.000;2023-08-21T01:39:27;0.30;;;0.30;;
35977;SDS011;22056;0.000;0.000;2023-08-21T01:41:53;0.30;;;0.30;;
35977;SDS011;22056;0.000;0.000;2023-08-21T01:44:21;0.30;;;0.30;;
35977;SDS011;22056;0.000;0.000;2023-08-21T01:46:47;0.32;;;0.32;;
35977;SDS011;22056;0.000;0.000;2023-08-21T01:49:13;0.40;;;0.40;;
35977;SDS011;22056;0.000;0.000;2023-08-21T01:51:39;0.30;;;0.30;;
35977;SDS011;22056;0.000;0.000;2023-08-21T01:54:05;0.30;;;0.30;;
35977;SDS011;22056;0.000;0.000;2023-08-21T01:56:31;0.30;;;0.30;;
35977;SDS011;22056;0.000;0.000;2023-08-21T01:58:58;0.35;;;0.35;;
35977;SDS011;22056;0.000;0.000;2023-08-21T02:01:24;0.30;;;0.30;;
35977;SDS011;22056;0.000;0.000;2023-08-21T02:03:50;0.30;;;0.30;;
35977;SDS011;22056;0.000;0.000;2023-08-21T02:06:16;0.40;;;0.40;;
35977;SDS011;22056;0.000;0.000;2023-08-21T02:08:42;0.30;;;0.30;;
35977;SDS011;22056;0.000;0.000;2023-08-21T02:11:08;0.30;;;0.30;;
35977;SDS011;22056;0.000;0.000;2023-08-21T02:13:35;0.38;;;0.30;;
35977;SDS011;22056;0.000;0.000;2023-08-21T02:16:01;0.30;;;0.30;;
35977;SDS011;22056;0.000;0.000;2023-08-21T02:18:27;0.30;;;0.30;;
35977;SDS011;22056;0.000;0.000;2023-08-21T02:20:53;0.40;;;0.40;;
35977;SDS011;22056;0.000;0.000;2023-08-21T02:23:19;0.40;;;0.40;;
35977;SDS011;22056;0.000;0.000;2023-08-21T02:25:45;0.40;;;0.40;;
35977;SDS011;22056;0.000;0.000;2023-08-21T02:28:11;0.50;;;0.50;;
35977;SDS011;22056;0.000;0.000;2023-08-21T02:30:40;0.55;;;0.40;;
35977;SDS011;22056;0.000;0.000;2023-08-21T02:33:07;0.30;;;0.30;;
35977;SDS011;22056;0.000;0.000;2023-08-21T02:35:33;0.30;;;0.30;;
35977;SDS011;22056;0.000;0.000;2023-08-21T02:37:59;0.30;;;0.30;;
35977;SDS011;22056;0.000;0.000;2023-08-21T02:40:25;0.22;;;0.22;;
35977;SDS011;22056;0.000;0.000;2023-08-21T02:42:51;0.30;;;0.30;;
35977;SDS011;22056;0.000;0.000;2023-08-21T02:45:17;0.38;;;0.38;;
35977;SDS011;22056;0.000;0.000;2023-08-21T02:47:44;0.30;;;0.30;;
35977;SDS011;22056;0.000;0.000;2023-08-21T02:50:10;0.30;;;0.30;;
35977;SDS011;22056;0.000;0.000;2023-08-21T02:52:37;0.30;;;0.30;;
35977;SDS011;22056;0.000;0.000;2023-08-21T02:55:03;0.30;;;0.30;;
35977;SDS011;22056;0.000;0.000;2023-08-21T02:57:29;0.40;;;0.40;;
35977;SDS011;22056;0.000;0.000;2023-08-21T02:59:56;0.40;;;0.40;;
35977;SDS011;22056;0.000;0.000;2023-08-21T03:02:22;0.30;;;0.30;;
35977;SDS011;22056;0.000;0.000;2023-08-21T03:04:48;0.30;;;0.30;;
35977;SDS011;22056;0.000;0.000;2023-08-21T03:07:15;0.32;;;0.32;;
35977;SDS011;22056;0.000;0.000;2023-08-21T03:09:42;0.30;;;0.30;;
35977;SDS011;22056;0.000;0.000;2023-08-21T03:12:08;0.30;;;0.30;;
35977;SDS011;22056;0.000;0.000;2023-08-21T03:14:34;0.30;;;0.30;;
35977;SDS011;22056;0.000;0.000;2023-08-21T03:17:00;0.30;;;0.30;;
35977;SDS011;22056;0.000;0.000;2023-08-21T03:19:26;0.30;;;0.30;;
35977;SDS011;22056;0.000;0.000;2023-08-21T03:21:52;0.30;;;0.30;;
35977;SDS011;22056;0.000;0.000;2023-08-21T03:24:18;0.30;;;0.30;;
35977;SDS011;22056;0.000;0.000;2023-08-21T03:26:45;0.28;;;0.28;;
35977;SDS011;22056;0.000;0.000;2023-08-21T03:29:11;0.30;;;0.30;;
35977;SDS011;22056;0.000;0.000;2023-08-21T03:31:37;0.35;;;0.35;;
35977;SDS011;22056;0.000;0.000;2023-08-21T03:34:03;0.30;;;0.30;;
35977;SDS011;22056;0.000;0.000;2023-08-21T03:36:29;0.30;;;0.30;;
35977;SDS011;22056;0.000;0.000;2023-08-21T03:38:58;0.30;;;0.30;;
35977;SDS011;22056;0.000;0.000;2023-08-21T03:41:24;0.30;;;0.30;;
35977;SDS011;22056;0.000;0.000;2023-08-21T03:43:51;0.25;;;0.25;;
35977;SDS011;22056;0.000;0.000;2023-08-21T03:46:17;0.30;;;0.30;;
35977;SDS011;22056;0.000;0.000;2023-08-21T03:48:43;0.30;;;0.30;;
35977;SDS011;22056;0.000;0.000;2023-08-21T03:51:09;0.30;;;0.30;;
35977;SDS011;22056;0.000;0.000;2023-08-21T03:53:35;0.30;;;0.30;;
35977;SDS011;22056;0.000;0.000;2023-08-21T03:56:01;0.22;;;0.22;;
35977;SDS011;22056;0.000;0.000;2023-08-21T03:58:27;0.40;;;0.40;;
35977;SDS011;22056;0.000;0.000;2023-08-21T04:03:29;0.20;;;0.20;;
35977;SDS011;22056;0.000;0.000;2023-08-21T04:05:55;0.35;;;0.30;;
35977;SDS011;22056;0.000;0.000;2023-08-21T04:08:25;0.30;;;0.30;;
35977;SDS011;22056;0.000;0.000;2023-08-21T04:10:51;0.38;;;0.38;;
35977;SDS011;22056;0.000;0.000;2023-08-21T04:13:18;0.30;;;0.30;;
35977;SDS011;22056;0.000;0.000;2023-08-21T04:15:44;0.32;;;0.32;;
35977;SDS011;22056;0.000;0.000;2023-08-21T04:18:11;0.30;;;0.30;;
35977;SDS011;22056;0.000;0.000;2023-08-21T04:20:37;0.43;;;0.30;;
35977;SDS011;22056;0.000;0.000;2023-08-21T04:23:03;0.65;;;0.32;;
35977;SDS011;22056;0.000;0.000;2023-08-21T04:25:29;0.60;;;0.40;;
35977;SDS011;22056;0.000;0.000;2023-08-21T04:27:55;0.40;;;0.40;;
35977;SDS011;22056;0.000;0.000;2023-08-21T04:30:22;0.28;;;0.28;;
35977;SDS011;22056;0.000;0.000;2023-08-21T04:32:48;1.02;;;0.30;;
35977;SDS011;22056;0.000;0.000;2023-08-21T04:35:14;0.40;;;0.30;;
35977;SDS011;22056;0.000;0.000;2023-08-21T04:37:45;1.15;;;0.40;;
35977;SDS011;22056;0.000;0.000;2023-08-21T04:40:11;1.30;;;0.30;;
35977;SDS011;22056;0.000;0.000;2023-08-21T04:42:38;1.23;;;0.40;;
35977;SDS011;22056;0.000;0.000;2023-08-21T04:45:04;0.90;;;0.40;;
35977;SDS011;22056;0.000;0.000;2023-08-21T04:47:31;0.40;;;0.30;;
35977;SDS011;22056;0.000;0.000;2023-08-21T04:49:57;0.68;;;0.40;;
35977;SDS011;22056;0.000;0.000;2023-08-21T04:52:23;0.40;;;0.40;;
35977;SDS011;22056;0.000;0.000;2023-08-21T04:54:51;0.43;;;0.43;;
35977;SDS011;22056;0.000;0.000;2023-08-21T04:57:17;0.73;;;0.30;;
35977;SDS011;22056;0.000;0.000;2023-08-21T04:59:44;1.40;;;0.30;;
35977;SDS011;22056;0.000;0.000;2023-08-21T05:02:10;1.40;;;0.30;;
35977;SDS011;22056;0.000;0.000;2023-08-21T05:04:36;0.57;;;0.40;;
35977;SDS011;22056;0.000;0.000;2023-08-21T05:07:03;0.63;;;0.30;;
35977;SDS011;22056;0.000;0.000;2023-08-21T05:09:29;0.52;;;0.30;;
35977;SDS011;22056;0.000;0.000;2023-08-21T05:11:56;0.40;;;0.35;;
35977;SDS011;22056;0.000;0.000;2023-08-21T05:14:22;0.35;;;0.35;;
35977;SDS011;22056;0.000;0.000;2023-08-21T05:16:49;0.60;;;0.45;;
35977;SDS011;22056;0.000;0.000;2023-08-21T05:19:15;1.63;;;0.30;;
35977;SDS011;22056;0.000;0.000;2023-08-21T05:21:42;1.13;;;0.30;;
35977;SDS011;22056;0.000;0.000;2023-08-21T05:24:08;1.20;;;0.40;;
35977;SDS011;22056;0.000;0.000;2023-08-21T05:26:37;0.63;;;0.40;;
35977;SDS011;22056;0.000;0.000;2023-08-21T05:29:04;0.98;;;0.40;;
35977;SDS011;22056;0.000;0.000;2023-08-21T05:31:30;1.05;;;0.40;;
35977;SDS011;22056;0.000;0.000;2023-08-21T05:33:56;1.77;;;0.45;;
35977;SDS011;22056;0.000;0.000;2023-08-21T05:36:22;0.60;;;0.40;;
35977;SDS011;22056;0.000;0.000;2023-08-21T05:38:49;1.10;;;0.40;;
35977;SDS011;22056;0.000;0.000;2023-08-21T05:41:16;1.45;;;0.40;;
35977;SDS011;22056;0.000;0.000;2023-08-21T05:43:42;1.10;;;0.40;;
35977;SDS011;22056;0.000;0.000;2023-08-21T05:46:10;0.70;;;0.40;;
35977;SDS011;22056;0.000;0.000;2023-08-21T05:48:36;1.00;;;0.40;;
35977;SDS011;22056;0.000;0.000;2023-08-21T05:51:03;1.85;;;0.40;;
35977;SDS011;22056;0.000;0.000;2023-08-21T05:53:30;0.40;;;0.30;;
35977;SDS011;22056;0.000;0.000;2023-08-21T05:55:56;0.40;;;0.40;;
35977;SDS011;22056;0.000;0.000;2023-08-21T05:58:22;2.35;;;0.50;;
35977;SDS011;22056;0.000;0.000;2023-08-21T06:00:48;0.73;;;0.50;;
35977;SDS011;22056;0.000;0.000;2023-08-21T06:03:14;2.85;;;0.45;;
35977;SDS011;22056;0.000;0.000;2023-08-21T06:05:41;2.08;;;0.68;;
35977;SDS011;22056;0.000;0.000;2023-08-21T06:08:08;1.02;;;0.50;;
35977;SDS011;22056;0.000;0.000;2023-08-21T06:10:34;1.58;;;0.60;;
35977;SDS011;22056;0.000;0.000;2023-08-21T06:13:01;0.93;;;0.40;;
35977;SDS011;22056;0.000;0.000;2023-08-21T06:15:27;2.30;;;0.40;;
35977;SDS011;22056;0.000;0.000;2023-08-21T06:17:53;1.35;;;0.63;;
35977;SDS011;22056;0.000;0.000;2023-08-21T06:20:19;3.92;;;0.68;;
35977;SDS011;22056;0.000;0.000;2023-08-21T06:22:45;2.15;;;0.40;;
35977;SDS011;22056;0.000;0.000;2023-08-21T06:25:12;0.65;;;0.40;;
35977;SDS011;22056;0.000;0.000;2023-08-21T06:27:38;0.77;;;0.40;;
35977;SDS011;22056;0.000;0.000;2023-08-21T06:30:05;0.85;;;0.40;;
35977;SDS011;22056;0.000;0.000;2023-08-21T06:32:31;1.85;;;0.50;;
35977;SDS011;22056;0.000;0.000;2023-08-21T06:34:57;2.22;;;0.73;;
35977;SDS011;22056;0.000;0.000;2023-08-21T06:37:23;0.98;;;0.52;;
35977;SDS011;22056;0.000;0.000;2023-08-21T06:39:50;1.15;;;0.70;;
35977;SDS011;22056;0.000;0.000;2023-08-21T06:42:16;2.33;;;0.45;;
35977;SDS011;22056;0.000;0.000;2023-08-21T06:44:42;3.78;;;0.73;;
35977;SDS011;22056;0.000;0.000;2023-08-21T06:47:08;1.70;;;0.88;;
35977;SDS011;22056;0.000;0.000;2023-08-21T06:49:34;1.45;;;0.50;;
35977;SDS011;22056;0.000;0.000;2023-08-21T06:52:01;0.80;;;0.45;;
35977;SDS011;22056;0.000;0.000;2023-08-21T06:54:28;2.40;;;0.50;;
35977;SDS011;22056;0.000;0.000;2023-08-21T06:56:54;2.22;;;0.60;;
35977;SDS011;22056;0.000;0.000;2023-08-21T06:59:21;3.08;;;0.65;;
35977;SDS011;22056;0.000;0.000;2023-08-21T07:01:47;2.92;;;0.90;;
35977;SDS011;22056;0.000;0.000;2023-08-21T07:04:13;1.20;;;0.40;;
35977;SDS011;22056;0.000;0.000;2023-08-21T07:06:39;1.88;;;0.40;;
35977;SDS011;22056;0.000;0.000;2023-08-21T07:09:05;0.75;;;0.45;;
35977;SDS011;22056;0.000;0.000;2023-08-21T07:11:32;1.70;;;0.40;;
35977;SDS011;22056;0.000;0.000;2023-08-21T07:13:58;0.95;;;0.50;;
35977;SDS011;22056;0.000;0.000;2023-08-21T07:16:24;2.33;;;0.60;;
35977;SDS011;22056;0.000;0.000;2023-08-21T07:18:51;1.33;;;0.47;;
35977;SDS011;22056;0.000;0.000;2023-08-21T07:21:17;2.83;;;0.40;;
35977;SDS011;22056;0.000;0.000;2023-08-21T07:23:43;2.92;;;0.50;;
35977;SDS011;22056;0.000;0.000;2023-08-21T07:26:10;1.27;;;0.75;;
35977;SDS011;22056;0.000;0.000;2023-08-21T07:28:36;2.08;;;0.50;;
35977;SDS011;22056;0.000;0.000;2023-08-21T07:31:02;1.25;;;0.60;;
35977;SDS011;22056;0.000;0.000;2023-08-21T07:33:28;1.30;;;0.60;;
35977;SDS011;22056;0.000;0.000;2023-08-21T07:36:01;1.85;;;0.55;;
35977;SDS011;22056;0.000;0.000;2023-08-21T07:38:28;2.72;;;0.50;;
35977;SDS011;22056;0.000;0.000;2023-08-21T07:41:10;1.23;;;0.50;;
35977;SDS011;22056;0.000;0.000;2023-08-21T07:43:37;5.10;;;0.70;;
35977;SDS011;22056;0.000;0.000;2023-08-21T07:46:03;3.13;;;0.60;;
35977;SDS011;22056;0.000;0.000;2023-08-21T07:48:30;0.98;;;0.40;;
35977;SDS011;22056;0.000;0.000;2023-08-21T07:50:56;3.00;;;0.68;;
35977;SDS011;22056;0.000;0.000;2023-08-21T07:53:23;1.17;;;0.50;;
35977;SDS011;22056;0.000;0.000;2023-08-21T07:55:49;1.35;;;0.57;;
35977;SDS011;22056;0.000;0.000;2023-08-21T07:58:15;1.17;;;0.50;;
35977;SDS011;22056;0.000;0.000;2023-08-21T08:00:41;2.17;;;0.60;;
35977;SDS011;22056;0.000;0.000;2023-08-21T08:03:08;3.08;;;0.60;;
35977;SDS011;22056;0.000;0.000;2023-08-21T08:05:34;1.48;;;0.47;;
35977;SDS011;22056;0.000;0.000;2023-08-21T08:08:00;3.97;;;0.50;;
35977;SDS011;22056;0.000;0.000;2023-08-21T08:10:26;2.03;;;0.52;;
35977;SDS011;22056;0.000;0.000;2023-08-21T08:12:53;3.22;;;0.50;;
35977;SDS011;22056;0.000;0.000;2023-08-21T08:15:20;1.90;;;0.45;;
35977;SDS011;22056;0.000;0.000;2023-08-21T08:17:46;1.65;;;0.50;;
35977;SDS011;22056;0.000;0.000;2023-08-21T08:20:13;1.08;;;0.40;;
35977;SDS011;22056;0.000;0.000;2023-08-21T08:22:39;2.15;;;0.60;;
35977;SDS011;22056;0.000;0.000;2023-08-21T08:25:05;1.50;;;0.40;;
35977;SDS011;22056;0.000;0.000;2023-08-21T08:27:32;1.92;;;0.50;;
35977;SDS011;22056;0.000;0.000;2023-08-21T08:29:58;2.47;;;0.43;;
35977;SDS011;22056;0.000;0.000;2023-08-21T08:32:25;1.27;;;0.43;;
35977;SDS011;22056;0.000;0.000;2023-08-21T08:34:51;2.60;;;0.43;;
35977;SDS011;22056;0.000;0.000;2023-08-21T08:37:18;1.08;;;0.43;;
35977;SDS011;22056;0.000;0.000;2023-08-21T08:39:45;1.10;;;0.45;;
35977;SDS011;22056;0.000;0.000;2023-08-21T08:42:12;2.60;;;0.63;;
35977;SDS011;22056;0.000;0.000;2023-08-21T08:44:38;1.58;;;0.43;;
35977;SDS011;22056;0.000;0.000;2023-08-21T08:47:06;0.57;;;0.45;;
35977;SDS011;22056;0.000;0.000;2023-08-21T08:49:32;1.42;;;0.40;;
35977;SDS011;22056;0.000;0.000;2023-08-21T08:51:59;1.83;;;0.52;;
35977;SDS011;22056;0.000;0.000;2023-08-21T08:54:25;0.85;;;0.30;;
35977;SDS011;22056;0.000;0.000;2023-08-21T08:56:52;2.05;;;0.55;;
35977;SDS011;22056;0.000;0.000;2023-08-21T08:59:19;3.45;;;0.80;;
35977;SDS011;22056;0.000;0.000;2023-08-21T09:01:45;1.05;;;0.50;;
35977;SDS011;22056;0.000;0.000;2023-08-21T09:04:11;4.50;;;0.60;;
35977;SDS011;22056;0.000;0.000;2023-08-21T09:06:38;2.47;;;0.50;;
35977;SDS011;22056;0.000;0.000;2023-08-21T09:09:04;0.55;;;0.45;;
35977;SDS011;22056;0.000;0.000;2023-08-21T09:11:32;1.67;;;0.40;;
35977;SDS011;22056;0.000;0.000;2023-08-21T09:13:58;0.63;;;0.38;;
35977;SDS011;22056;0.000;0.000;2023-08-21T09:16:25;0.82;;;0.50;;
35977;SDS011;22056;0.000;0.000;2023-08-21T09:18:53;2.40;;;0.52;;
35977;SDS011;22056;0.000;0.000;2023-08-21T09:21:20;2.53;;;0.60;;
35977;SDS011;22056;0.000;0.000;2023-08-21T09:23:46;1.92;;;0.50;;
35977;SDS011;22056;0.000;0.000;2023-08-21T09:26:19;2.03;;;0.50;;
35977;SDS011;22056;0.000;0.000;2023-08-21T09:28:46;2.28;;;0.60;;
35977;SDS011;22056;0.000;0.000;2023-08-21T09:31:12;2.65;;;0.40;;
35977;SDS011;22056;0.000;0.000;2023-08-21T09:33:38;1.45;;;0.60;;
35977;SDS011;22056;0.000;0.000;2023-08-21T09:36:04;1.88;;;0.40;;
35977;SDS011;22056;0.000;0.000;2023-08-21T09:38:30;1.13;;;0.30;;
35977;SDS011;22056;0.000;0.000;2023-08-21T09:40:57;0.50;;;0.40;;
35977;SDS011;22056;0.000;0.000;2023-08-21T09:43:23;1.98;;;0.40;;
35977;SDS011;22056;0.000;0.000;2023-08-21T09:45:52;1.42;;;0.50;;
35977;SDS011;22056;0.000;0.000;2023-08-21T09:48:24;4.03;;;0.43;;
35977;SDS011;22056;0.000;0.000;2023-08-21T09:50:54;2.35;;;0.60;;
35977;SDS011;22056;0.000;0.000;2023-08-21T09:53:21;0.85;;;0.43;;
35977;SDS011;22056;0.000;0.000;2023-08-21T09:55:53;3.50;;;0.60;;
35977;SDS011;22056;0.000;0.000;2023-08-21T09:58:20;1.80;;;0.50;;
35977;SDS011;22056;0.000;0.000;2023-08-21T10:00:47;0.65;;;0.40;;
35977;SDS011;22056;0.000;0.000;2023-08-21T10:03:14;1.80;;;0.47;;
35977;SDS011;22056;0.000;0.000;2023-08-21T10:05:44;1.05;;;0.40;;
35977;SDS011;22056;0.000;0.000;2023-08-21T10:08:11;0.63;;;0.55;;
35977;SDS011;22056;0.000;0.000;2023-08-21T10:10:37;1.40;;;0.40;;
35977;SDS011;22056;0.000;0.000;2023-08-21T10:13:04;0.77;;;0.30;;
35977;SDS011;22056;0.000;0.000;2023-08-21T10:15:31;0.98;;;0.35;;
35977;SDS011;22056;0.000;0.000;2023-08-21T10:18:17;1.48;;;0.45;;
35977;SDS011;22056;0.000;0.000;2023-08-21T10:20:44;1.20;;;0.40;;
35977;SDS011;22056;0.000;0.000;2023-08-21T10:23:12;2.60;;;0.50;;
35977;SDS011;22056;0.000;0.000;2023-08-21T10:25:50;1.48;;;0.52;;
35977;SDS011;22056;0.000;0.000;2023-08-21T10:28:19;0.90;;;0.60;;
35977;SDS011;22056;0.000;0.000;2023-08-21T10:30:46;1.27;;;0.47;;
35977;SDS011;22056;0.000;0.000;2023-08-21T10:33:12;2.25;;;0.60;;
35977;SDS011;22056;0.000;0.000;2023-08-21T10:35:38;0.70;;;0.40;;
35977;SDS011;22056;0.000;0.000;2023-08-21T10:40:37;3.58;;;0.60;;
35977;SDS011;22056;0.000;0.000;2023-08-21T10:43:03;3.42;;;0.50;;
35977;SDS011;22056;0.000;0.000;2023-08-21T10:45:30;2.03;;;0.50;;
35977;SDS011;22056;0.000;0.000;2023-08-21T10:47:57;1.77;;;0.63;;
35977;SDS011;22056;0.000;0.000;2023-08-21T10:50:23;0.50;;;0.40;;
35977;SDS011;22056;0.000;0.000;2023-08-21T10:52:51;1.15;;;0.50;;
35977;SDS011;22056;0.000;0.000;2023-08-21T10:55:17;0.85;;;0.45;;
35977;SDS011;22056;0.000;0.000;2023-08-21T10:57:45;1.40;;;0.70;;
35977;SDS011;22056;0.000;0.000;2023-08-21T11:00:12;4.55;;;0.60;;
35977;SDS011;22056;0.000;0.000;2023-08-21T11:02:39;0.63;;;0.55;;
35977;SDS011;22056;0.000;0.000;2023-08-21T11:05:06;2.35;;;0.50;;
35977;SDS011;22056;0.000;0.000;2023-08-21T11:07:40;1.52;;;0.40;;
35977;SDS011;22056;0.000;0.000;2023-08-21T11:10:07;3.00;;;0.40;;
35977;SDS011;22056;0.000;0.000;2023-08-21T11:12:36;1.85;;;0.50;;
35977;SDS011;22056;0.000;0.000;2023-08-21T11:15:02;2.05;;;0.40;;
35977;SDS011;22056;0.000;0.000;2023-08-21T11:17:29;0.75;;;0.50;;
35977;SDS011;22056;0.000;0.000;2023-08-21T11:19:55;1.55;;;0.63;;
35977;SDS011;22056;0.000;0.000;2023-08-21T11:22:27;2.17;;;0.50;;
35977;SDS011;22056;0.000;0.000;2023-08-21T11:24:55;3.72;;;0.60;;
35977;SDS011;22056;0.000;0.000;2023-08-21T11:27:21;2.53;;;0.80;;
35977;SDS011;22056;0.000;0.000;2023-08-21T11:29:49;1.05;;;0.50;;
35977;SDS011;22056;0.000;0.000;2023-08-21T11:34:42;0.80;;;0.50;;
35977;SDS011;22056;0.000;0.000;2023-08-21T11:37:09;1.20;;;0.50;;
35977;SDS011;22056;0.000;0.000;2023-08-21T11:39:54;3.22;;;0.60;;
35977;SDS011;22056;0.000;0.000;2023-08-21T11:42:22;0.77;;;0.43;;
35977;SDS011;22056;0.000;0.000;2023-08-21T11:44:52;2.35;;;0.50;;
35977;SDS011;22056;0.000;0.000;2023-08-21T11:47:19;2.67;;;0.60;;
35977;SDS011;22056;0.000;0.000;2023-08-21T11:49:45;1.45;;;0.50;;
35977;SDS011;22056;0.000;0.000;2023-08-21T11:52:22;3.15;;;0.50;;
35977;SDS011;22056;0.000;0.000;2023-08-21T11:54:51;2.65;;;0.60;;
35977;SDS011;22056;0.000;0.000;2023-08-21T11:57:17;2.28;;;0.50;;
35977;SDS011;22056;0.000;0.000;2023-08-21T11:59:53;2.25;;;0.60;;
35977;SDS011;22056;0.000;0.000;2023-08-21T12:05:07;1.85;;;0.47;;
35977;SDS011;22056;0.000;0.000;2023-08-21T12:07:38;2.03;;;0.60;;
35977;SDS011;22056;0.000;0.000;2023-08-21T12:10:04;1.30;;;0.65;;
35977;SDS011;22056;0.000;0.000;2023-08-21T12:12:30;1.65;;;0.70;;
35977;SDS011;22056;0.000;0.000;2023-08-21T12:14:56;3.83;;;0.95;;
35977;SDS011;22056;0.000;0.000;2023-08-21T12:17:22;1.65;;;0.80;;
35977;SDS011;22056;0.000;0.000;2023-08-21T12:19:49;3.80;;;0.60;;
35977;SDS011;22056;0.000;0.000;2023-08-21T12:22:15;4.72;;;1.05;;
35977;SDS011;22056;0.000;0.000;2023-08-21T12:24:41;3.03;;;0.70;;
35977;SDS011;22056;0.000;0.000;2023-08-21T12:27:07;4.70;;;0.70;;
35977;SDS011;22056;0.000;0.000;2023-08-21T12:29:33;1.95;;;0.57;;
35977;SDS011;22056;0.000;0.000;2023-08-21T12:32:00;1.65;;;0.63;;
35977;SDS011;22056;0.000;0.000;2023-08-21T12:34:27;3.08;;;0.55;;
35977;SDS011;22056;0.000;0.000;2023-08-21T12:36:53;9.15;;;0.90;;
35977;SDS011;22056;0.000;0.000;2023-08-21T12:39:20;4.53;;;0.68;;
35977;SDS011;22056;0.000;0.000;2023-08-21T12:41:47;3.58;;;1.05;;
35977;SDS011;22056;0.000;0.000;2023-08-21T12:44:13;4.25;;;0.82;;
35977;SDS011;22056;0.000;0.000;2023-08-21T12:46:40;2.08;;;0.60;;
35977;SDS011;22056;0.000;0.000;2023-08-21T12:49:06;0.40;;;0.40;;
35977;SDS011;22056;0.000;0.000;2023-08-21T12:51:32;5.40;;;1.08;;
35977;SDS011;22056;0.000;0.000;2023-08-21T12:53:58;10.10;;;1.77;;
35977;SDS011;22056;0.000;0.000;2023-08-21T12:56:25;6.63;;;0.77;;
35977;SDS011;22056;0.000;0.000;2023-08-21T12:58:51;4.80;;;1.13;;
35977;SDS011;22056;0.000;0.000;2023-08-21T13:01:17;5.82;;;0.75;;
35977;SDS011;22056;0.000;0.000;2023-08-21T13:03:47;2.30;;;0.63;;
35977;SDS011;22056;0.000;0.000;2023-08-21T13:06:13;3.30;;;0.85;;
35977;SDS011;22056;0.000;0.000;2023-08-21T13:08:40;2.60;;;0.60;;
35977;SDS011;22056;0.000;0.000;2023-08-21T13:11:06;5.22;;;0.70;;
35977;SDS011;22056;0.000;0.000;2023-08-21T13:13:35;2.33;;;0.73;;
35977;SDS011;22056;0.000;0.000;2023-08-21T13:16:01;4.97;;;0.80;;
35977;SDS011;22056;0.000;0.000;2023-08-21T13:18:28;3.00;;;0.70;;
35977;SDS011;22056;0.000;0.000;2023-08-21T13:20:54;3.10;;;0.90;;
35977;SDS011;22056;0.000;0.000;2023-08-21T13:23:20;2.65;;;0.73;;
35977;SDS011;22056;0.000;0.000;2023-08-21T13:25:47;2.75;;;0.77;;
35977;SDS011;22056;0.000;0.000;2023-08-21T13:28:14;2.38;;;0.70;;
35977;SDS011;22056;0.000;0.000;2023-08-21T13:30:40;4.05;;;0.95;;
35977;SDS011;22056;0.000;0.000;2023-08-21T13:33:06;4.03;;;0.65;;
35977;SDS011;22056;0.000;0.000;2023-08-21T13:35:33;2.25;;;0.77;;
35977;SDS011;22056;0.000;0.000;2023-08-21T13:37:59;3.60;;;0.70;;
35977;SDS011;22056;0.000;0.000;2023-08-21T13:40:25;4.75;;;0.70;;
35977;SDS011;22056;0.000;0.000;2023-08-21T13:42:51;4.18;;;0.73;;
35977;SDS011;22056;0.000;0.000;2023-08-21T13:45:18;4.43;;;0.82;;
35977;SDS011;22056;0.000;0.000;2023-08-21T13:47:44;2.78;;;0.70;;
35977;SDS011;22056;0.000;0.000;2023-08-21T13:50:14;1.27;;;0.60;;
35977;SDS011;22056;0.000;0.000;2023-08-21T13:52:41;2.35;;;0.50;;
35977;SDS011;22056;0.000;0.000;2023-08-21T13:55:08;2.90;;;0.68;;
35977;SDS011;22056;0.000;0.000;2023-08-21T13:57:35;1.50;;;0.60;;
35977;SDS011;22056;0.000;0.000;2023-08-21T14:00:02;3.03;;;0.55;;
35977;SDS011;22056;0.000;0.000;2023-08-21T14:02:35;3.20;;;0.90;;
35977;SDS011;22056;0.000;0.000;2023-08-21T14:05:01;4.55;;;0.85;;
35977;SDS011;22056;0.000;0.000;2023-08-21T14:07:31;3.03;;;0.90;;
35977;SDS011;22056;0.000;0.000;2023-08-21T14:09:58;3.95;;;1.10;;
35977;SDS011;22056;0.000;0.000;2023-08-21T14:12:24;2.95;;;0.70;;
35977;SDS011;22056;0.000;0.000;2023-08-21T14:14:50;5.93;;;1.02;;
35977;SDS011;22056;0.000;0.000;2023-08-21T14:17:16;6.10;;;0.90;;
35977;SDS011;22056;0.000;0.000;2023-08-21T14:19:42;1.98;;;0.65;;
35977;SDS011;22056;0.000;0.000;2023-08-21T14:22:08;3.90;;;0.90;;
35977;SDS011;22056;0.000;0.000;2023-08-21T14:24:34;6.13;;;1.00;;
35977;SDS011;22056;0.000;0.000;2023-08-21T14:27:01;6.22;;;0.90;;
35977;SDS011;22056;0.000;0.000;2023-08-21T14:29:27;1.92;;;0.65;;
35977;SDS011;22056;0.000;0.000;2023-08-21T14:31:53;2.53;;;0.90;;
35977;SDS011;22056;0.000;0.000;2023-08-21T14:34:19;3.95;;;0.65;;
35977;SDS011;22056;0.000;0.000;2023-08-21T14:36:47;2.22;;;0.65;;
35977;SDS011;22056;0.000;0.000;2023-08-21T14:39:14;5.53;;;0.73;;
35977;SDS011;22056;0.000;0.000;2023-08-21T14:41:42;3.33;;;0.60;;
35977;SDS011;22056;0.000;0.000;2023-08-21T14:44:08;3.83;;;1.02;;
35977;SDS011;22056;0.000;0.000;2023-08-21T14:46:35;1.80;;;0.70;;
35977;SDS011;22056;0.000;0.000;2023-08-21T14:49:01;3.60;;;0.50;;
35977;SDS011;22056;0.000;0.000;2023-08-21T14:51:27;1.40;;;0.70;;
35977;SDS011;22056;0.000;0.000;2023-08-21T14:53:54;1.77;;;0.60;;
35977;SDS011;22056;0.000;0.000;2023-08-21T14:56:20;2.38;;;0.60;;
35977;SDS011;22056;0.000;0.000;2023-08-21T14:58:47;3.25;;;0.70;;
35977;SDS011;22056;0.000;0.000;2023-08-21T15:01:13;1.63;;;0.60;;
35977;SDS011;22056;0.000;0.000;2023-08-21T15:03:40;1.42;;;0.50;;
35977;SDS011;22056;0.000;0.000;2023-08-21T15:06:06;1.02;;;0.60;;
35977;SDS011;22056;0.000;0.000;2023-08-21T15:08:32;1.95;;;0.60;;
35977;SDS011;22056;0.000;0.000;2023-08-21T15:10:59;2.47;;;0.63;;
35977;SDS011;22056;0.000;0.000;2023-08-21T15:13:25;3.13;;;0.70;;
35977;SDS011;22056;0.000;0.000;2023-08-21T15:15:51;3.78;;;0.80;;